EZY8791 EGKK-LXGB
Flight info
| Callsign | EZY8791 |
|---|---|
| Flight time | N/A |
| Altitude | 35000 |
| Route | IMVUR N63 SAM M195 MARUK N621 LELNA DCT NOVAN DCT DELOG DCT CRISA DCT VULPE DCT MAR N864 PIMOS |
| Aircraft | A320/M-SDE3FGHIRWY/LB1 |
Departure
| Time | 2026-05-06 21:55 |
|---|---|
| Airport | London Gatwick Airport (EGKK) |
Arrival
| Time | N/A |
|---|---|
| Airport | Gibraltar Airport (LXGB) |
| Time | Latitude | Longitude | Altitude | Speed | Heading |
|---|---|---|---|---|---|
| 2026-05-06 21:21 | 51.16043 | -0.16963 | 208 ft | 0 kts | 333° |
| 2026-05-06 21:30 | 51.16042 | -0.16963 | 208 ft | 0 kts | 333° |
| 2026-05-06 21:40 | 51.16042 | -0.16962 | 207 ft | 2 kts | 333° |
| 2026-05-06 21:40 | 51.16027 | -0.16950 | 218 ft | 2 kts | 333° |
| 2026-05-06 21:40 | 51.16011 | -0.16937 | 211 ft | 2 kts | 333° |
| 2026-05-06 21:41 | 51.15996 | -0.16925 | 218 ft | 2 kts | 333° |
| 2026-05-06 21:41 | 51.15981 | -0.16910 | 219 ft | 3 kts | 306° |
| 2026-05-06 21:41 | 51.15973 | -0.16886 | 216 ft | 3 kts | 271° |
| 2026-05-06 21:41 | 51.15973 | -0.16879 | 218 ft | 0 kts | 266° |
| 2026-05-06 21:44 | 51.15973 | -0.16880 | 217 ft | 1 kts | 266° |
| 2026-05-06 21:44 | 51.15960 | -0.16953 | 214 ft | 9 kts | 246° |
| 2026-05-06 21:44 | 51.15926 | -0.17026 | 209 ft | 10 kts | 222° |
| 2026-05-06 21:45 | 51.15873 | -0.17070 | 213 ft | 13 kts | 200° |
| 2026-05-06 21:45 | 51.15812 | -0.17133 | 212 ft | 10 kts | 249° |
| 2026-05-06 21:45 | 51.15800 | -0.17230 | 206 ft | 10 kts | 258° |
| 2026-05-06 21:45 | 51.15774 | -0.17405 | 209 ft | 19 kts | 257° |
| 2026-05-06 21:46 | 51.15748 | -0.17605 | 211 ft | 18 kts | 258° |
| 2026-05-06 21:46 | 51.15721 | -0.17795 | 206 ft | 17 kts | 257° |
| 2026-05-06 21:46 | 51.15698 | -0.17963 | 206 ft | 14 kts | 258° |
| 2026-05-06 21:46 | 51.15679 | -0.18108 | 208 ft | 12 kts | 258° |
| 2026-05-06 21:47 | 51.15643 | -0.18209 | 211 ft | 10 kts | 211° |
| 2026-05-06 21:47 | 51.15580 | -0.18272 | 211 ft | 14 kts | 213° |
| 2026-05-06 21:47 | 51.15499 | -0.18317 | 211 ft | 12 kts | 167° |
| 2026-05-06 21:47 | 51.15402 | -0.18282 | 206 ft | 19 kts | 168° |
| 2026-05-06 21:48 | 51.15273 | -0.18237 | 212 ft | 19 kts | 167° |
| 2026-05-06 21:48 | 51.15191 | -0.18246 | 211 ft | 10 kts | 236° |
| 2026-05-06 21:48 | 51.15179 | -0.18375 | 206 ft | 17 kts | 257° |
| 2026-05-06 21:48 | 51.15155 | -0.18554 | 211 ft | 16 kts | 259° |
| 2026-05-06 21:49 | 51.15127 | -0.18763 | 213 ft | 24 kts | 256° |
| 2026-05-06 21:49 | 51.15091 | -0.19019 | 206 ft | 22 kts | 258° |
| 2026-05-06 21:49 | 51.15057 | -0.19261 | 218 ft | 23 kts | 258° |
| 2026-05-06 21:49 | 51.15022 | -0.19508 | 209 ft | 23 kts | 258° |
| 2026-05-06 21:50 | 51.14988 | -0.19764 | 209 ft | 24 kts | 257° |
| 2026-05-06 21:50 | 51.14951 | -0.20029 | 209 ft | 25 kts | 257° |
| 2026-05-06 21:50 | 51.14917 | -0.20278 | 206 ft | 21 kts | 258° |
| 2026-05-06 21:50 | 51.14884 | -0.20516 | 209 ft | 22 kts | 257° |
| 2026-05-06 21:51 | 51.14849 | -0.20759 | 209 ft | 23 kts | 257° |
| 2026-05-06 21:51 | 51.14816 | -0.21005 | 207 ft | 23 kts | 257° |
| 2026-05-06 21:51 | 51.14781 | -0.21201 | 209 ft | 15 kts | 252° |
| 2026-05-06 21:51 | 51.14759 | -0.21347 | 206 ft | 12 kts | 258° |
| 2026-05-06 21:52 | 51.14714 | -0.21402 | 215 ft | 6 kts | 171° |
| 2026-05-06 21:52 | 51.14679 | -0.21388 | 212 ft | 4 kts | 153° |
| 2026-05-06 21:52 | 51.14645 | -0.21338 | 211 ft | 8 kts | 149° |
| 2026-05-06 21:52 | 51.14618 | -0.21328 | 206 ft | 0 kts | 165° |
| 2026-05-06 21:53 | 51.14584 | -0.21315 | 214 ft | 13 kts | 165° |
| 2026-05-06 21:53 | 51.14517 | -0.21203 | 210 ft | 11 kts | 103° |
| 2026-05-06 21:53 | 51.14520 | -0.21152 | 206 ft | 0 kts | 75° |
| 2026-05-06 21:54 | 51.14540 | -0.21013 | 217 ft | 39 kts | 78° |
| 2026-05-06 21:54 | 51.14650 | -0.20215 | 211 ft | 105 kts | 78° |
| 2026-05-06 21:54 | 51.14847 | -0.18790 | 209 ft | 157 kts | 78° |
| 2026-05-06 21:54 | 51.15091 | -0.17009 | 668 ft | 162 kts | 77° |
| 2026-05-06 21:55 | 51.15338 | -0.15255 | 1378 ft | 162 kts | 76° |
| 2026-05-06 21:55 | 51.15599 | -0.13409 | 1687 ft | 182 kts | 75° |
| 2026-05-06 21:55 | 51.15905 | -0.11338 | 1954 ft | 202 kts | 75° |
| 2026-05-06 21:55 | 51.16224 | -0.09036 | 2265 ft | 221 kts | 76° |
| 2026-05-06 21:56 | 51.16687 | -0.06690 | 2851 ft | 226 kts | 56° |
| 2026-05-06 21:56 | 51.17882 | -0.05195 | 3288 ft | 224 kts | 15° |
| 2026-05-06 21:56 | 51.19431 | -0.05182 | 3959 ft | 227 kts | 348° |
| 2026-05-06 21:56 | 51.20974 | -0.05779 | 4692 ft | 229 kts | 336° |
| 2026-05-06 21:57 | 51.22221 | -0.07331 | 5332 ft | 232 kts | 303° |
| 2026-05-06 21:57 | 51.22749 | -0.09829 | 5678 ft | 252 kts | 269° |
| 2026-05-06 21:57 | 51.22491 | -0.12689 | 6121 ft | 267 kts | 259° |
| 2026-05-06 21:57 | 51.22136 | -0.15629 | 6810 ft | 272 kts | 259° |
| 2026-05-06 21:58 | 51.21776 | -0.18616 | 7560 ft | 275 kts | 259° |
| 2026-05-06 21:58 | 51.21423 | -0.21584 | 8295 ft | 278 kts | 260° |
| 2026-05-06 21:58 | 51.21066 | -0.24625 | 9057 ft | 281 kts | 260° |
| 2026-05-06 21:58 | 51.20707 | -0.27702 | 9798 ft | 284 kts | 260° |
| 2026-05-06 21:59 | 51.20345 | -0.30813 | 10474 ft | 287 kts | 261° |
| 2026-05-06 21:59 | 51.19980 | -0.33955 | 11143 ft | 290 kts | 261° |
| 2026-05-06 21:59 | 51.19597 | -0.37129 | 11816 ft | 292 kts | 259° |
| 2026-05-06 21:59 | 51.19186 | -0.40320 | 12486 ft | 295 kts | 259° |
| 2026-05-06 22:00 | 51.18761 | -0.43534 | 13143 ft | 298 kts | 259° |
| 2026-05-06 22:00 | 51.18331 | -0.46778 | 13805 ft | 301 kts | 259° |
| 2026-05-06 22:00 | 51.17895 | -0.50063 | 14388 ft | 304 kts | 259° |
| 2026-05-06 22:00 | 51.17409 | -0.53346 | 14972 ft | 306 kts | 252° |
| 2026-05-06 22:01 | 51.16614 | -0.56598 | 15153 ft | 325 kts | 248° |
| 2026-05-06 22:01 | 51.15713 | -0.60005 | 15287 ft | 343 kts | 248° |
| 2026-05-06 22:01 | 51.14754 | -0.63577 | 15467 ft | 358 kts | 248° |
| 2026-05-06 22:01 | 51.13762 | -0.67250 | 15922 ft | 364 kts | 248° |
| 2026-05-06 22:02 | 51.12757 | -0.70969 | 16470 ft | 367 kts | 247° |
| 2026-05-06 22:02 | 51.11746 | -0.74713 | 17023 ft | 370 kts | 247° |
| 2026-05-06 22:02 | 51.10730 | -0.78489 | 17600 ft | 372 kts | 247° |
| 2026-05-06 22:02 | 51.09708 | -0.82293 | 18159 ft | 375 kts | 247° |
| 2026-05-06 22:03 | 51.08681 | -0.86120 | 18656 ft | 377 kts | 247° |
| 2026-05-06 22:03 | 51.07646 | -0.89965 | 19143 ft | 380 kts | 247° |
| 2026-05-06 22:03 | 51.06614 | -0.93788 | 19630 ft | 382 kts | 247° |
| 2026-05-06 22:03 | 51.05549 | -0.97730 | 20128 ft | 385 kts | 247° |
| 2026-05-06 22:04 | 51.04491 | -1.01643 | 20610 ft | 387 kts | 247° |
| 2026-05-06 22:04 | 51.03437 | -1.05541 | 21104 ft | 389 kts | 247° |
| 2026-05-06 22:04 | 51.02367 | -1.09496 | 21575 ft | 392 kts | 247° |
| 2026-05-06 22:04 | 51.01284 | -1.13480 | 22033 ft | 394 kts | 247° |
| 2026-05-06 22:05 | 51.00186 | -1.17493 | 22491 ft | 397 kts | 247° |
| 2026-05-06 22:05 | 50.99080 | -1.21527 | 22944 ft | 399 kts | 247° |
| 2026-05-06 22:05 | 50.97970 | -1.25570 | 23377 ft | 401 kts | 247° |
| 2026-05-06 22:05 | 50.96796 | -1.29612 | 23757 ft | 404 kts | 242° |
| 2026-05-06 22:06 | 50.95241 | -1.33339 | 24111 ft | 407 kts | 232° |
| 2026-05-06 22:06 | 50.93281 | -1.36576 | 24453 ft | 410 kts | 221° |
| 2026-05-06 22:06 | 50.90971 | -1.39258 | 24787 ft | 413 kts | 214° |
| 2026-05-06 22:06 | 50.88594 | -1.41717 | 25116 ft | 414 kts | 214° |
| 2026-05-06 22:07 | 50.86177 | -1.44225 | 25444 ft | 416 kts | 214° |
| 2026-05-06 22:07 | 50.83753 | -1.46746 | 25764 ft | 418 kts | 214° |
| 2026-05-06 22:07 | 50.81319 | -1.49275 | 26081 ft | 419 kts | 214° |
| 2026-05-06 22:07 | 50.78868 | -1.51816 | 26396 ft | 421 kts | 214° |
| 2026-05-06 22:08 | 50.76415 | -1.54355 | 26701 ft | 423 kts | 214° |
| 2026-05-06 22:08 | 50.73945 | -1.56912 | 27009 ft | 424 kts | 214° |
| 2026-05-06 22:08 | 50.71476 | -1.59465 | 27305 ft | 426 kts | 214° |
| 2026-05-06 22:08 | 50.68992 | -1.62034 | 27587 ft | 428 kts | 214° |
| 2026-05-06 22:09 | 50.66498 | -1.64610 | 27866 ft | 429 kts | 214° |
| 2026-05-06 22:09 | 50.63988 | -1.67192 | 28137 ft | 431 kts | 214° |
| 2026-05-06 22:09 | 50.61470 | -1.69777 | 28407 ft | 433 kts | 214° |
| 2026-05-06 22:09 | 50.58945 | -1.72365 | 28671 ft | 434 kts | 214° |
| 2026-05-06 22:10 | 50.56406 | -1.74959 | 28910 ft | 436 kts | 214° |
| 2026-05-06 22:10 | 50.53855 | -1.77561 | 29161 ft | 437 kts | 214° |
| 2026-05-06 22:10 | 50.51302 | -1.80165 | 29402 ft | 439 kts | 214° |
| 2026-05-06 22:10 | 50.48738 | -1.82781 | 29618 ft | 440 kts | 214° |
| 2026-05-06 22:11 | 50.46200 | -1.85370 | 29842 ft | 442 kts | 214° |
| 2026-05-06 22:11 | 50.43618 | -1.88000 | 30050 ft | 443 kts | 214° |
| 2026-05-06 22:11 | 50.41029 | -1.90639 | 30238 ft | 444 kts | 214° |
| 2026-05-06 22:11 | 50.38434 | -1.93279 | 30480 ft | 444 kts | 214° |
| 2026-05-06 22:12 | 50.35847 | -1.95904 | 30734 ft | 443 kts | 214° |
| 2026-05-06 22:12 | 50.33258 | -1.98522 | 30991 ft | 442 kts | 214° |
| 2026-05-06 22:12 | 50.30678 | -2.01124 | 31240 ft | 441 kts | 214° |
| 2026-05-06 22:12 | 50.28091 | -2.03707 | 31487 ft | 441 kts | 212° |
| 2026-05-06 22:13 | 50.25339 | -2.05840 | 31734 ft | 442 kts | 202° |
| 2026-05-06 22:13 | 50.22396 | -2.07254 | 31963 ft | 444 kts | 193° |
| 2026-05-06 22:13 | 50.19335 | -2.07921 | 32191 ft | 445 kts | 186° |
| 2026-05-06 22:13 | 50.16248 | -2.08298 | 32430 ft | 445 kts | 186° |
| 2026-05-06 22:14 | 50.13164 | -2.08690 | 32662 ft | 444 kts | 186° |
| 2026-05-06 22:14 | 50.10083 | -2.09091 | 32895 ft | 444 kts | 186° |
| 2026-05-06 22:14 | 50.07046 | -2.09490 | 33130 ft | 444 kts | 186° |
| 2026-05-06 22:14 | 50.03972 | -2.09898 | 33362 ft | 443 kts | 186° |
| 2026-05-06 22:15 | 50.00861 | -2.10309 | 33608 ft | 442 kts | 186° |
| 2026-05-06 22:15 | 49.97867 | -2.10945 | 33834 ft | 440 kts | 194° |
| 2026-05-06 22:15 | 49.94920 | -2.12204 | 34046 ft | 439 kts | 198° |
| 2026-05-06 22:15 | 49.91991 | -2.13587 | 34242 ft | 439 kts | 198° |
| 2026-05-06 22:16 | 49.89067 | -2.14960 | 34407 ft | 439 kts | 198° |
| 2026-05-06 22:16 | 49.86137 | -2.16325 | 34572 ft | 439 kts | 198° |
| 2026-05-06 22:16 | 49.83210 | -2.17682 | 34730 ft | 440 kts | 198° |
| 2026-05-06 22:16 | 49.80277 | -2.19039 | 34888 ft | 440 kts | 198° |
| 2026-05-06 22:17 | 49.77345 | -2.20398 | 35000 ft | 440 kts | 198° |
| 2026-05-06 22:17 | 49.74417 | -2.21758 | 35026 ft | 439 kts | 198° |
| 2026-05-06 22:17 | 49.68570 | -2.24479 | 35022 ft | 439 kts | 198° |
| 2026-05-06 22:18 | 49.62755 | -2.27177 | 35026 ft | 439 kts | 198° |
| 2026-05-06 22:18 | 49.56899 | -2.29870 | 35027 ft | 439 kts | 198° |
| 2026-05-06 22:19 | 49.51170 | -2.32496 | 35026 ft | 417 kts | 198° |
| 2026-05-06 22:19 | 49.45669 | -2.35020 | 35030 ft | 410 kts | 198° |
| 2026-05-06 22:20 | 49.40213 | -2.37530 | 35027 ft | 409 kts | 198° |
| 2026-05-06 22:20 | 49.34758 | -2.40030 | 35026 ft | 409 kts | 198° |
| 2026-05-06 22:21 | 49.29289 | -2.42525 | 35023 ft | 410 kts | 198° |
| 2026-05-06 22:21 | 49.23820 | -2.45008 | 35028 ft | 410 kts | 198° |
| 2026-05-06 22:22 | 49.18387 | -2.47467 | 35022 ft | 410 kts | 198° |
| 2026-05-06 22:22 | 49.12912 | -2.49953 | 35019 ft | 410 kts | 198° |
| 2026-05-06 22:23 | 49.07444 | -2.52429 | 35015 ft | 410 kts | 198° |
| 2026-05-06 22:23 | 49.01973 | -2.54881 | 35012 ft | 410 kts | 197° |
| 2026-05-06 22:24 | 48.96505 | -2.57337 | 35008 ft | 410 kts | 198° |
| 2026-05-06 22:24 | 48.91038 | -2.59801 | 35008 ft | 410 kts | 198° |
| 2026-05-06 22:25 | 48.85600 | -2.62239 | 35005 ft | 410 kts | 197° |
| 2026-05-06 22:25 | 48.80128 | -2.64678 | 35007 ft | 410 kts | 197° |
| 2026-05-06 22:26 | 48.74653 | -2.67111 | 35007 ft | 410 kts | 197° |
| 2026-05-06 22:26 | 48.69176 | -2.69546 | 35008 ft | 410 kts | 197° |
| 2026-05-06 22:27 | 48.63695 | -2.71979 | 35008 ft | 411 kts | 197° |
| 2026-05-06 22:27 | 48.58207 | -2.74406 | 35008 ft | 411 kts | 197° |
| 2026-05-06 22:28 | 48.52714 | -2.76834 | 35011 ft | 412 kts | 197° |
| 2026-05-06 22:28 | 48.47215 | -2.79263 | 35005 ft | 412 kts | 197° |
| 2026-05-06 22:29 | 48.41705 | -2.81685 | 35014 ft | 412 kts | 197° |
| 2026-05-06 22:29 | 48.36197 | -2.84098 | 35009 ft | 412 kts | 197° |
| 2026-05-06 22:30 | 48.30683 | -2.86510 | 35005 ft | 413 kts | 197° |
| 2026-05-06 22:30 | 48.25203 | -2.88909 | 35003 ft | 413 kts | 197° |
| 2026-05-06 22:31 | 48.19680 | -2.91317 | 35006 ft | 413 kts | 197° |
| 2026-05-06 22:31 | 48.14150 | -2.93709 | 35005 ft | 414 kts | 197° |
| 2026-05-06 22:32 | 48.08616 | -2.96100 | 35001 ft | 414 kts | 197° |
| 2026-05-06 22:32 | 48.03079 | -2.98496 | 35002 ft | 414 kts | 197° |
| 2026-05-06 22:33 | 47.97534 | -3.00899 | 34996 ft | 415 kts | 197° |
| 2026-05-06 22:33 | 47.92024 | -3.03278 | 34997 ft | 415 kts | 197° |
| 2026-05-06 22:34 | 47.86469 | -3.05668 | 34988 ft | 416 kts | 197° |
| 2026-05-06 22:34 | 47.80906 | -3.08050 | 35010 ft | 416 kts | 197° |
| 2026-05-06 22:35 | 47.75337 | -3.10429 | 35007 ft | 417 kts | 197° |
| 2026-05-06 22:35 | 47.69763 | -3.12809 | 35004 ft | 417 kts | 197° |
| 2026-05-06 22:36 | 47.64185 | -3.15186 | 35007 ft | 417 kts | 197° |
| 2026-05-06 22:36 | 47.59551 | -3.17159 | 35004 ft | 417 kts | 197° |
| 2026-05-06 22:37 | 47.53965 | -3.19524 | 34999 ft | 418 kts | 197° |
| 2026-05-06 22:37 | 47.48375 | -3.21894 | 35001 ft | 418 kts | 197° |
| 2026-05-06 22:38 | 47.42778 | -3.24255 | 34994 ft | 418 kts | 197° |
| 2026-05-06 22:38 | 47.37175 | -3.26619 | 34995 ft | 419 kts | 197° |
| 2026-05-06 22:39 | 47.31566 | -3.28988 | 34996 ft | 419 kts | 197° |
| 2026-05-06 22:39 | 47.25946 | -3.31337 | 34994 ft | 420 kts | 197° |
| 2026-05-06 22:40 | 47.20357 | -3.33674 | 34992 ft | 421 kts | 197° |
| 2026-05-06 22:40 | 47.14724 | -3.36038 | 34988 ft | 421 kts | 197° |
| 2026-05-06 22:41 | 47.06252 | -3.39564 | 34995 ft | 422 kts | 196° |
| 2026-05-06 22:42 | 47.00594 | -3.41909 | 34991 ft | 423 kts | 196° |
| 2026-05-06 22:42 | 46.94929 | -3.44255 | 34996 ft | 423 kts | 196° |